Wright Pat, Ohio
Current Conditions -  °F | °C
As of 4:58 AM on Thursday 18 Dec 2014 (Local Time) from KFFO Reporting Station
Overcast Overcast  
Wind Chill: 19°   Ceiling: 2000
Heat Index: 27°   Visibility: 10mi
Dew Point: 18°   Wind: 7mph
Humidity: 70%   Direction: 320°NW
Pressure: 30.25"   Gusts: NA
Location:  39.8169°N, 84.0506°W
Report Text: KFFO 180958Z AUTO 32006KT 10SM OVC020 M03/M08 A3025 RMK AO2 SLP257 T10291076
Loading
Personal Weather Stations






























Interactive Weather Map New forecast layout! Learn more

10-Day Weather Forecast

Advertisements
Track Severe Weather on mobile